sensor_id;sensor_type;location;lat;lon;timestamp;pressure;altitude;pressure_sealevel;temperature;humidity
7532;BME280;3807;49.030;8.714;2023-04-26T00:02:21;99435.56;;;10.77;69.94
7532;BME280;3807;49.030;8.714;2023-04-26T00:04:51;99423.56;;;10.81;69.75
7532;BME280;3807;49.030;8.714;2023-04-26T00:07:19;99429.59;;;10.78;69.76
7532;BME280;3807;49.030;8.714;2023-04-26T00:09:45;99428.87;;;10.75;69.64
7532;BME280;3807;49.030;8.714;2023-04-26T00:12:10;99425.69;;;10.68;70.16
7532;BME280;3807;49.030;8.714;2023-04-26T00:14:36;99431.16;;;10.82;69.35
7532;BME280;3807;49.030;8.714;2023-04-26T00:17:01;99434.88;;;10.72;69.72
7532;BME280;3807;49.030;8.714;2023-04-26T00:19:28;99432.19;;;10.77;69.48
7532;BME280;3807;49.030;8.714;2023-04-26T00:21:53;99429.44;;;10.83;69.14
7532;BME280;3807;49.030;8.714;2023-04-26T00:24:19;99432.34;;;10.72;69.40
7532;BME280;3807;49.030;8.714;2023-04-26T00:26:45;99437.44;;;10.72;69.27
7532;BME280;3807;49.030;8.714;2023-04-26T00:29:10;99438.53;;;10.63;69.54
7532;BME280;3807;49.030;8.714;2023-04-26T00:31:35;99446.06;;;10.68;69.63
7532;BME280;3807;49.030;8.714;2023-04-26T00:34:01;99445.25;;;10.66;69.50
7532;BME280;3807;49.030;8.714;2023-04-26T00:36:26;99445.25;;;10.66;69.49
7532;BME280;3807;49.030;8.714;2023-04-26T00:38:52;99433.97;;;10.75;69.12
7532;BME280;3807;49.030;8.714;2023-04-26T00:41:17;99431.75;;;10.64;69.53
7532;BME280;3807;49.030;8.714;2023-04-26T00:43:42;99427.69;;;10.58;69.66
7532;BME280;3807;49.030;8.714;2023-04-26T00:46:08;99423.72;;;10.49;69.91
7532;BME280;3807;49.030;8.714;2023-04-26T00:48:35;99425.22;;;10.55;69.74
7532;BME280;3807;49.030;8.714;2023-04-26T00:51:01;99425.31;;;10.52;69.67
7532;BME280;3807;49.030;8.714;2023-04-26T00:53:27;99430.50;;;10.49;69.96
7532;BME280;3807;49.030;8.714;2023-04-26T00:55:54;99430.37;;;10.54;69.71
7532;BME280;3807;49.030;8.714;2023-04-26T00:58:20;99432.84;;;10.57;69.40
7532;BME280;3807;49.030;8.714;2023-04-26T01:00:45;99436.25;;;10.56;69.36
7532;BME280;3807;49.030;8.714;2023-04-26T01:03:11;99431.31;;;10.51;69.65
7532;BME280;3807;49.030;8.714;2023-04-26T01:05:37;99435.66;;;10.47;69.57
7532;BME280;3807;49.030;8.714;2023-04-26T01:08:03;99432.31;;;10.45;69.45
7532;BME280;3807;49.030;8.714;2023-04-26T01:10:31;99427.09;;;10.50;69.45
7532;BME280;3807;49.030;8.714;2023-04-26T01:12:56;99431.06;;;10.59;69.11
7532;BME280;3807;49.030;8.714;2023-04-26T01:15:22;99425.47;;;10.47;69.41
7532;BME280;3807;49.030;8.714;2023-04-26T01:17:48;99429.69;;;10.48;69.32
7532;BME280;3807;49.030;8.714;2023-04-26T01:20:15;99429.75;;;10.47;69.29
7532;BME280;3807;49.030;8.714;2023-04-26T01:22:40;99424.94;;;10.38;69.67
7532;BME280;3807;49.030;8.714;2023-04-26T01:25:05;99422.37;;;10.38;69.73
7532;BME280;3807;49.030;8.714;2023-04-26T01:27:33;99427.78;;;10.29;69.76
7532;BME280;3807;49.030;8.714;2023-04-26T01:29:59;99426.88;;;10.30;69.79
7532;BME280;3807;49.030;8.714;2023-04-26T01:32:25;99427.88;;;10.25;69.82
7532;BME280;3807;49.030;8.714;2023-04-26T01:34:50;99420.13;;;10.29;69.89
7532;BME280;3807;49.030;8.714;2023-04-26T01:37:16;99421.06;;;10.24;69.87
7532;BME280;3807;49.030;8.714;2023-04-26T01:39:41;99418.50;;;10.24;69.90
7532;BME280;3807;49.030;8.714;2023-04-26T01:42:06;99409.16;;;10.27;69.82
7532;BME280;3807;49.030;8.714;2023-04-26T01:44:32;99420.13;;;10.29;69.62
7532;BME280;3807;49.030;8.714;2023-04-26T01:46:57;99417.09;;;10.16;69.48
7532;BME280;3807;49.030;8.714;2023-04-26T01:49:23;99422.94;;;10.18;69.92
7532;BME280;3807;49.030;8.714;2023-04-26T01:51:48;99412.69;;;10.21;69.78
7532;BME280;3807;49.030;8.714;2023-04-26T01:54:13;99416.19;;;10.18;69.83
7532;BME280;3807;49.030;8.714;2023-04-26T01:56:39;99415.47;;;10.13;69.73
7532;BME280;3807;49.030;8.714;2023-04-26T01:59:04;99417.97;;;10.15;69.80
7532;BME280;3807;49.030;8.714;2023-04-26T02:01:29;99418.16;;;10.09;69.93
7532;BME280;3807;49.030;8.714;2023-04-26T02:03:55;99412.84;;;10.16;69.97
7532;BME280;3807;49.030;8.714;2023-04-26T02:06:20;99410.53;;;10.09;69.81
7532;BME280;3807;49.030;8.714;2023-04-26T02:08:46;99420.63;;;10.10;69.91
7532;BME280;3807;49.030;8.714;2023-04-26T02:11:11;99418.06;;;10.12;69.91
7532;BME280;3807;49.030;8.714;2023-04-26T02:13:37;99419.00;;;10.09;69.82
7532;BME280;3807;49.030;8.714;2023-04-26T02:16:02;99419.56;;;10.17;69.50
7532;BME280;3807;49.030;8.714;2023-04-26T02:18:28;99427.34;;;10.13;69.60
7532;BME280;3807;49.030;8.714;2023-04-26T02:20:54;99432.31;;;10.17;69.44
7532;BME280;3807;49.030;8.714;2023-04-26T02:23:20;99424.06;;;10.09;69.52
7532;BME280;3807;49.030;8.714;2023-04-26T02:25:46;99429.25;;;10.06;69.47
7532;BME280;3807;49.030;8.714;2023-04-26T02:28:12;99424.16;;;10.06;69.66
7532;BME280;3807;49.030;8.714;2023-04-26T02:30:37;99420.31;;;9.93;69.83
7532;BME280;3807;49.030;8.714;2023-04-26T02:33:02;99421.25;;;9.90;69.73
7532;BME280;3807;49.030;8.714;2023-04-26T02:35:28;99423.69;;;9.93;69.78
7532;BME280;3807;49.030;8.714;2023-04-26T02:37:54;99431.28;;;9.95;69.59
7532;BME280;3807;49.030;8.714;2023-04-26T02:40:20;99428.75;;;9.95;69.54
7532;BME280;3807;49.030;8.714;2023-04-26T02:42:45;99427.19;;;9.89;69.76
7532;BME280;3807;49.030;8.714;2023-04-26T02:45:11;99428.97;;;9.87;69.92
7532;BME280;3807;49.030;8.714;2023-04-26T02:47:37;99437.53;;;9.83;69.69
7532;BME280;3807;49.030;8.714;2023-04-26T02:50:04;99425.69;;;9.84;69.79
7532;BME280;3807;49.030;8.714;2023-04-26T02:52:29;99426.44;;;9.87;69.51
7532;BME280;3807;49.030;8.714;2023-04-26T02:54:55;99430.72;;;9.85;69.48
7532;BME280;3807;49.030;8.714;2023-04-26T02:57:20;99425.69;;;9.84;69.56
7532;BME280;3807;49.030;8.714;2023-04-26T02:59:46;99434.22;;;9.81;69.63
7532;BME280;3807;49.030;8.714;2023-04-26T03:02:11;99425.03;;;9.75;69.54
7532;BME280;3807;49.030;8.714;2023-04-26T03:04:36;99425.09;;;9.74;69.61
7532;BME280;3807;49.030;8.714;2023-04-26T03:07:02;99427.47;;;9.80;69.54
7532;BME280;3807;49.030;8.714;2023-04-26T03:09:28;99433.62;;;9.71;69.42
7532;BME280;3807;49.030;8.714;2023-04-26T03:11:53;99436.25;;;9.70;69.61
7532;BME280;3807;49.030;8.714;2023-04-26T03:14:18;99435.34;;;9.71;69.65
7532;BME280;3807;49.030;8.714;2023-04-26T03:16:44;99435.59;;;9.62;69.65
7532;BME280;3807;49.030;8.714;2023-04-26T03:19:09;99431.31;;;9.64;69.75
7532;BME280;3807;49.030;8.714;2023-04-26T03:21:35;99437.37;;;9.60;69.68
7532;BME280;3807;49.030;8.714;2023-04-26T03:24:00;99439.84;;;9.63;69.27
7532;BME280;3807;49.030;8.714;2023-04-26T03:26:26;99435.22;;;9.75;68.92
7532;BME280;3807;49.030;8.714;2023-04-26T03:28:51;99441.12;;;9.76;68.81
7532;BME280;3807;49.030;8.714;2023-04-26T03:31:16;99429.91;;;9.53;69.43
7532;BME280;3807;49.030;8.714;2023-04-26T03:33:42;99429.28;;;9.45;69.60
7532;BME280;3807;49.030;8.714;2023-04-26T03:36:07;99434.44;;;9.42;69.90
7532;BME280;3807;49.030;8.714;2023-04-26T03:38:33;99438.66;;;9.43;69.77
7532;BME280;3807;49.030;8.714;2023-04-26T03:40:58;99435.28;;;9.43;69.80
7532;BME280;3807;49.030;8.714;2023-04-26T03:43:24;99439.56;;;9.41;69.91
7532;BME280;3807;49.030;8.714;2023-04-26T03:45:50;99440.38;;;9.41;69.78
7532;BME280;3807;49.030;8.714;2023-04-26T03:48:15;99440.97;;;9.52;69.61
7532;BME280;3807;49.030;8.714;2023-04-26T03:50:41;99446.06;;;9.51;69.15
7532;BME280;3807;49.030;8.714;2023-04-26T03:53:09;99446.13;;;9.49;69.47
7532;BME280;3807;49.030;8.714;2023-04-26T03:55:35;99445.59;;;9.38;69.68
7532;BME280;3807;49.030;8.714;2023-04-26T03:58:00;99439.91;;;9.28;69.67
7532;BME280;3807;49.030;8.714;2023-04-26T04:00:27;99435.56;;;9.32;70.02
7532;BME280;3807;49.030;8.714;2023-04-26T04:02:52;99437.97;;;9.37;69.73
7532;BME280;3807;49.030;8.714;2023-04-26T04:05:18;99442.19;;;9.38;69.70
7532;BME280;3807;49.030;8.714;2023-04-26T04:07:43;99439.69;;;9.36;69.37
7532;BME280;3807;49.030;8.714;2023-04-26T04:10:09;99437.97;;;9.37;69.75
7532;BME280;3807;49.030;8.714;2023-04-26T04:12:35;99435.56;;;9.32;69.47
7532;BME280;3807;49.030;8.714;2023-04-26T04:15:00;99428.81;;;9.31;69.69
7532;BME280;3807;49.030;8.714;2023-04-26T04:17:26;99435.44;;;9.37;69.48
7532;BME280;3807;49.030;8.714;2023-04-26T04:19:52;99427.06;;;9.33;69.72
7532;BME280;3807;49.030;8.714;2023-04-26T04:22:17;99434.00;;;9.28;69.66
7532;BME280;3807;49.030;8.714;2023-04-26T04:24:42;99430.63;;;9.26;69.58
7532;BME280;3807;49.030;8.714;2023-04-26T04:27:08;99430.63;;;9.26;69.61
7532;BME280;3807;49.030;8.714;2023-04-26T04:29:34;99443.34;;;9.26;69.78
7532;BME280;3807;49.030;8.714;2023-04-26T04:32:00;99438.81;;;9.37;69.30
7532;BME280;3807;49.030;8.714;2023-04-26T04:34:26;99440.22;;;9.47;68.80
7532;BME280;3807;49.030;8.714;2023-04-26T04:36:51;99446.09;;;9.18;69.59
7532;BME280;3807;49.030;8.714;2023-04-26T04:39:16;99447.81;;;9.18;69.98
7532;BME280;3807;49.030;8.714;2023-04-26T04:41:42;99442.66;;;9.21;69.57
7532;BME280;3807;49.030;8.714;2023-04-26T04:44:14;99450.09;;;9.27;69.36
7532;BME280;3807;49.030;8.714;2023-04-26T04:46:41;99447.72;;;9.21;69.35
7532;BME280;3807;49.030;8.714;2023-04-26T04:49:06;99446.16;;;9.15;69.57
7532;BME280;3807;49.030;8.714;2023-04-26T04:51:33;99449.22;;;9.28;69.45
7532;BME280;3807;49.030;8.714;2023-04-26T04:53:58;99450.84;;;9.30;68.89
7532;BME280;3807;49.030;8.714;2023-04-26T04:56:24;99463.81;;;9.21;69.33
7532;BME280;3807;49.030;8.714;2023-04-26T04:58:50;99458.53;;;9.29;68.97
7532;BME280;3807;49.030;8.714;2023-04-26T05:01:15;99457.28;;;9.11;69.68
7532;BME280;3807;49.030;8.714;2023-04-26T05:03:40;99457.22;;;9.13;69.59
7532;BME280;3807;49.030;8.714;2023-04-26T05:06:06;99458.19;;;9.09;69.65
7532;BME280;3807;49.030;8.714;2023-04-26T05:08:32;99463.81;;;9.20;69.09
7532;BME280;3807;49.030;8.714;2023-04-26T05:10:57;99468.13;;;9.18;69.34
7532;BME280;3807;49.030;8.714;2023-04-26T05:13:23;99465.03;;;9.06;69.42
7532;BME280;3807;49.030;8.714;2023-04-26T05:15:48;99470.34;;;8.96;69.87
7532;BME280;3807;49.030;8.714;2023-04-26T05:18:14;99466.63;;;9.11;69.45
7532;BME280;3807;49.030;8.714;2023-04-26T05:20:39;99468.28;;;9.12;69.20
7532;BME280;3807;49.030;8.714;2023-04-26T05:23:05;99483.56;;;9.10;69.31
7532;BME280;3807;49.030;8.714;2023-04-26T05:25:30;99481.94;;;9.07;69.41
7532;BME280;3807;49.030;8.714;2023-04-26T05:27:56;99485.56;;;8.97;69.63
7532;BME280;3807;49.030;8.714;2023-04-26T05:30:21;99477.13;;;8.95;69.76
7532;BME280;3807;49.030;8.714;2023-04-26T05:32:46;99483.47;;;9.13;69.24
7532;BME280;3807;49.030;8.714;2023-04-26T05:35:12;99488.81;;;9.02;69.48
7532;BME280;3807;49.030;8.714;2023-04-26T05:37:37;99487.38;;;8.92;69.72
7532;BME280;3807;49.030;8.714;2023-04-26T05:40:04;99493.75;;;9.09;69.22
7532;BME280;3807;49.030;8.714;2023-04-26T05:42:30;99497.87;;;9.13;68.91
7532;BME280;3807;49.030;8.714;2023-04-26T05:44:59;99492.44;;;8.92;69.70
7532;BME280;3807;49.030;8.714;2023-04-26T05:47:24;99493.38;;;8.90;69.89
7532;BME280;3807;49.030;8.714;2023-04-26T05:49:50;99494.34;;;8.84;69.93
7532;BME280;3807;49.030;8.714;2023-04-26T05:52:15;99493.31;;;8.93;69.58
7532;BME280;3807;49.030;8.714;2023-04-26T05:54:40;99499.16;;;8.95;69.64
7532;BME280;3807;49.030;8.714;2023-04-26T05:57:06;99494.84;;;8.98;69.53
7532;BME280;3807;49.030;8.714;2023-04-26T05:59:35;99489.00;;;8.95;69.53
7532;BME280;3807;49.030;8.714;2023-04-26T06:02:00;99503.00;;;9.11;69.05
7532;BME280;3807;49.030;8.714;2023-04-26T06:04:26;99502.28;;;9.06;69.22
7532;BME280;3807;49.030;8.714;2023-04-26T06:06:51;99508.25;;;9.05;69.19
7532;BME280;3807;49.030;8.714;2023-04-26T06:09:16;99510.12;;;8.97;69.49
7532;BME280;3807;49.030;8.714;2023-04-26T06:11:42;99514.22;;;9.02;69.29
7532;BME280;3807;49.030;8.714;2023-04-26T06:14:07;99517.62;;;9.01;69.46
7532;BME280;3807;49.030;8.714;2023-04-26T06:16:32;99522.09;;;8.92;69.75
7532;BME280;3807;49.030;8.714;2023-04-26T06:18:58;99526.00;;;9.06;69.36
7532;BME280;3807;49.030;8.714;2023-04-26T06:21:23;99521.31;;;9.24;68.52
7532;BME280;3807;49.030;8.714;2023-04-26T06:23:48;99523.53;;;9.03;69.20
7532;BME280;3807;49.030;8.714;2023-04-26T06:26:14;99524.44;;;8.99;69.53
7532;BME280;3807;49.030;8.714;2023-04-26T06:28:39;99521.00;;;9.02;69.43
7532;BME280;3807;49.030;8.714;2023-04-26T06:31:04;99524.38;;;9.04;69.48
7532;BME280;3807;49.030;8.714;2023-04-26T06:33:31;99518.94;;;9.18;68.93
7532;BME280;3807;49.030;8.714;2023-04-26T06:35:56;99522.25;;;9.21;68.82
7532;BME280;3807;49.030;8.714;2023-04-26T06:38:21;99518.25;;;9.11;68.97
7532;BME280;3807;49.030;8.714;2023-04-26T06:40:47;99524.44;;;8.99;69.76
7532;BME280;3807;49.030;8.714;2023-04-26T06:43:12;99514.28;;;9.01;69.82
7532;BME280;3807;49.030;8.714;2023-04-26T06:45:37;99516.59;;;9.10;69.49
7532;BME280;3807;49.030;8.714;2023-04-26T06:48:03;99517.19;;;9.20;69.53
7532;BME280;3807;49.030;8.714;2023-04-26T06:50:29;99521.09;;;9.33;68.59
7532;BME280;3807;49.030;8.714;2023-04-26T06:52:54;99517.78;;;9.31;68.69
7532;BME280;3807;49.030;8.714;2023-04-26T06:55:20;99512.03;;;9.23;68.88
7532;BME280;3807;49.030;8.714;2023-04-26T06:57:45;99513.03;;;9.17;69.32
7532;BME280;3807;49.030;8.714;2023-04-26T07:00:11;99518.88;;;9.21;69.29
7532;BME280;3807;49.030;8.714;2023-04-26T07:02:37;99509.41;;;9.26;69.80
7532;BME280;3807;49.030;8.714;2023-04-26T07:05:03;99510.63;;;9.11;69.77
7532;BME280;3807;49.030;8.714;2023-04-26T07:07:29;99514.38;;;9.30;69.16
7532;BME280;3807;49.030;8.714;2023-04-26T07:09:54;99506.88;;;9.26;68.97
7532;BME280;3807;49.030;8.714;2023-04-26T07:12:19;99504.94;;;9.01;70.05
7532;BME280;3807;49.030;8.714;2023-04-26T07:14:45;99510.59;;;9.13;70.02
7532;BME280;3807;49.030;8.714;2023-04-26T07:17:10;99504.87;;;9.37;69.10
7532;BME280;3807;49.030;8.714;2023-04-26T07:19:36;99502.53;;;9.31;69.47
7532;BME280;3807;49.030;8.714;2023-04-26T07:22:01;99503.75;;;9.49;68.30
7532;BME280;3807;49.030;8.714;2023-04-26T07:24:27;99499.72;;;9.40;69.24
7532;BME280;3807;49.030;8.714;2023-04-26T07:26:52;99501.16;;;9.18;70.05
7532;BME280;3807;49.030;8.714;2023-04-26T07:29:18;99495.91;;;9.24;69.61
7532;BME280;3807;49.030;8.714;2023-04-26T07:31:44;99496.41;;;9.38;69.76
7532;BME280;3807;49.030;8.714;2023-04-26T07:34:09;99498.75;;;9.46;69.12
7532;BME280;3807;49.030;8.714;2023-04-26T07:36:34;99500.53;;;9.42;69.09
7532;BME280;3807;49.030;8.714;2023-04-26T07:39:00;99496.22;;;9.46;68.91
7532;BME280;3807;49.030;8.714;2023-04-26T07:41:25;99488.53;;;9.47;69.01
7532;BME280;3807;49.030;8.714;2023-04-26T07:43:51;99488.59;;;9.46;68.95
7532;BME280;3807;49.030;8.714;2023-04-26T07:46:16;99487.25;;;9.64;68.57
7532;BME280;3807;49.030;8.714;2023-04-26T07:48:42;99493.31;;;9.58;68.64
7532;BME280;3807;49.030;8.714;2023-04-26T07:51:09;99497.53;;;9.28;70.05
7532;BME280;3807;49.030;8.714;2023-04-26T07:53:35;99499.59;;;9.45;69.77
7532;BME280;3807;49.030;8.714;2023-04-26T07:56:03;99503.00;;;9.45;69.83
7532;BME280;3807;49.030;8.714;2023-04-26T07:58:29;99499.34;;;9.56;69.06
7532;BME280;3807;49.030;8.714;2023-04-26T08:00:57;99496.16;;;9.47;69.36
7532;BME280;3807;49.030;8.714;2023-04-26T08:03:22;99499.84;;;9.68;68.68
7532;BME280;3807;49.030;8.714;2023-04-26T08:05:48;99506.13;;;9.55;69.48
7532;BME280;3807;49.030;8.714;2023-04-26T08:08:13;99506.56;;;9.71;69.06
7532;BME280;3807;49.030;8.714;2023-04-26T08:10:41;99500.66;;;9.69;69.36
7532;BME280;3807;49.030;8.714;2023-04-26T08:13:07;99503.41;;;9.61;69.66
7532;BME280;3807;49.030;8.714;2023-04-26T08:15:32;99507.38;;;9.73;69.20
7532;BME280;3807;49.030;8.714;2023-04-26T08:17:58;99510.69;;;9.75;69.39
7532;BME280;3807;49.030;8.714;2023-04-26T08:20:23;99501.62;;;9.65;67.06
7532;BME280;3807;49.030;8.714;2023-04-26T08:22:54;99496.44;;;9.69;66.71
7532;BME280;3807;49.030;8.714;2023-04-26T08:25:19;99501.97;;;9.52;67.19
7532;BME280;3807;49.030;8.714;2023-04-26T08:27:45;99506.09;;;9.88;66.44
7532;BME280;3807;49.030;8.714;2023-04-26T08:30:11;99496.69;;;9.59;66.28
7532;BME280;3807;49.030;8.714;2023-04-26T08:32:36;99499.75;;;9.71;68.65
7532;BME280;3807;49.030;8.714;2023-04-26T08:35:02;99504.16;;;9.96;66.53
7532;BME280;3807;49.030;8.714;2023-04-26T08:37:28;99504.69;;;10.07;66.40
7532;BME280;3807;49.030;8.714;2023-04-26T08:39:53;99504.38;;;10.18;66.67
7532;BME280;3807;49.030;8.714;2023-04-26T08:42:19;99502.28;;;10.02;67.32
7532;BME280;3807;49.030;8.714;2023-04-26T08:44:45;99495.72;;;9.95;62.42
7532;BME280;3807;49.030;8.714;2023-04-26T08:47:21;99511.50;;;10.07;68.20
7532;BME280;3807;49.030;8.714;2023-04-26T08:49:52;99498.19;;;10.28;66.45
7532;BME280;3807;49.030;8.714;2023-04-26T08:52:26;99507.53;;;9.98;60.83
7532;BME280;3807;49.030;8.714;2023-04-26T08:54:53;99499.50;;;10.12;62.93
7532;BME280;3807;49.030;8.714;2023-04-26T08:57:19;99497.28;;;10.31;67.21
7532;BME280;3807;49.030;8.714;2023-04-26T08:59:45;99485.28;;;10.34;66.53
7532;BME280;3807;49.030;8.714;2023-04-26T09:02:17;99486.19;;;10.32;66.63
7532;BME280;3807;49.030;8.714;2023-04-26T09:04:44;99483.53;;;10.36;67.04
7532;BME280;3807;49.030;8.714;2023-04-26T09:07:14;99495.72;;;10.55;66.44
7532;BME280;3807;49.030;8.714;2023-04-26T09:09:47;99488.00;;;10.28;63.40
7532;BME280;3807;49.030;8.714;2023-04-26T09:12:14;99477.47;;;10.40;62.29
7532;BME280;3807;49.030;8.714;2023-04-26T09:14:41;99481.91;;;10.62;60.28
7532;BME280;3807;49.030;8.714;2023-04-26T09:17:23;99477.56;;;10.37;62.00
7532;BME280;3807;49.030;8.714;2023-04-26T09:19:49;99481.84;;;10.63;66.10
7532;BME280;3807;49.030;8.714;2023-04-26T09:22:26;99475.72;;;10.69;61.74
7532;BME280;3807;49.030;8.714;2023-04-26T09:24:52;99472.31;;;10.70;65.56
7532;BME280;3807;49.030;8.714;2023-04-26T09:27:18;99485.25;;;10.90;63.53
7532;BME280;3807;49.030;8.714;2023-04-26T09:29:57;99484.56;;;10.85;61.76
7532;BME280;3807;49.030;8.714;2023-04-26T09:32:24;99483.75;;;10.85;57.86
7532;BME280;3807;49.030;8.714;2023-04-26T09:34:49;99475.34;;;11.08;61.93
7532;BME280;3807;49.030;8.714;2023-04-26T09:37:15;99481.41;;;11.30;62.01
7532;BME280;3807;49.030;8.714;2023-04-26T09:39:41;99474.13;;;11.19;64.66
7532;BME280;3807;49.030;8.714;2023-04-26T09:42:08;99473.16;;;11.22;64.28
7532;BME280;3807;49.030;8.714;2023-04-26T09:44:33;99478.06;;;11.28;63.87
7532;BME280;3807;49.030;8.714;2023-04-26T09:47:01;99476.97;;;11.35;62.79
7532;BME280;3807;49.030;8.714;2023-04-26T09:49:30;99472.31;;;11.47;60.24
7532;BME280;3807;49.030;8.714;2023-04-26T09:52:03;99472.19;;;11.51;62.18
7532;BME280;3807;49.030;8.714;2023-04-26T09:54:44;99477.47;;;11.45;62.56
7532;BME280;3807;49.030;8.714;2023-04-26T09:57:10;99478.13;;;11.75;62.59
7532;BME280;3807;49.030;8.714;2023-04-26T09:59:40;99466.59;;;11.65;61.35
7532;BME280;3807;49.030;8.714;2023-04-26T10:02:13;99467.75;;;11.80;59.26
7532;BME280;3807;49.030;8.714;2023-04-26T10:04:38;99469.63;;;11.75;60.47
7532;BME280;3807;49.030;8.714;2023-04-26T10:07:04;99472.31;;;11.72;60.67
7532;BME280;3807;49.030;8.714;2023-04-26T10:09:30;99474.97;;;11.92;59.48
7532;BME280;3807;49.030;8.714;2023-04-26T10:11:57;99472.84;;;11.80;57.24
7532;BME280;3807;49.030;8.714;2023-04-26T10:14:24;99470.16;;;11.84;58.83
7532;BME280;3807;49.030;8.714;2023-04-26T10:16:50;99473.13;;;12.19;58.81
7532;BME280;3807;49.030;8.714;2023-04-26T10:19:17;99472.53;;;12.12;59.77
7532;BME280;3807;49.030;8.714;2023-04-26T10:21:44;99463.91;;;12.38;58.30
7532;BME280;3807;49.030;8.714;2023-04-26T10:24:11;99458.53;;;12.45;58.18
7532;BME280;3807;49.030;8.714;2023-04-26T10:26:50;99448.78;;;12.54;55.89
7532;BME280;3807;49.030;8.714;2023-04-26T10:29:18;99451.34;;;12.54;52.90
7532;BME280;3807;49.030;8.714;2023-04-26T10:34:32;99436.91;;;12.96;58.18
7532;BME280;3807;49.030;8.714;2023-04-26T10:37:12;99441.50;;;12.87;57.48
7532;BME280;3807;49.030;8.714;2023-04-26T10:39:39;99443.13;;;12.90;56.74
7532;BME280;3807;49.030;8.714;2023-04-26T10:45:29;99436.28;;;12.91;56.53
7532;BME280;3807;49.030;8.714;2023-04-26T10:48:17;99433.97;;;12.84;56.95
7532;BME280;3807;49.030;8.714;2023-04-26T10:58:49;99434.88;;;13.45;48.76
7532;BME280;3807;49.030;8.714;2023-04-26T11:01:31;99429.19;;;13.38;56.71
7532;BME280;3807;49.030;8.714;2023-04-26T11:06:22;99432.53;;;13.59;54.77
7532;BME280;3807;49.030;8.714;2023-04-26T11:08:49;99429.19;;;13.77;55.93
7532;BME280;3807;49.030;8.714;2023-04-26T11:11:16;99426.94;;;13.70;53.78
7532;BME280;3807;49.030;8.714;2023-04-26T11:13:44;99418.50;;;13.68;48.95
7532;BME280;3807;49.030;8.714;2023-04-26T11:16:11;99416.16;;;13.82;47.90
7532;BME280;3807;49.030;8.714;2023-04-26T11:18:39;99414.22;;;13.68;54.54
7532;BME280;3807;49.030;8.714;2023-04-26T11:21:06;99403.56;;;13.96;49.65
7532;BME280;3807;49.030;8.714;2023-04-26T11:23:33;99400.38;;;14.10;53.10
7532;BME280;3807;49.030;8.714;2023-04-26T11:26:00;99399.41;;;14.13;55.01
7532;BME280;3807;49.030;8.714;2023-04-26T11:28:32;99394.22;;;14.32;56.49
7532;BME280;3807;49.030;8.714;2023-04-26T11:30:58;99390.75;;;14.33;57.13
7532;BME280;3807;49.030;8.714;2023-04-26T11:33:24;99376.03;;;14.19;47.94
7532;BME280;3807;49.030;8.714;2023-04-26T11:35:54;99382.28;;;14.67;53.74
7532;BME280;3807;49.030;8.714;2023-04-26T11:38:27;99374.53;;;14.51;46.54
7532;BME280;3807;49.030;8.714;2023-04-26T11:41:00;99371.97;;;14.68;52.29
7532;BME280;3807;49.030;8.714;2023-04-26T11:43:43;99372.31;;;14.95;53.14
7532;BME280;3807;49.030;8.714;2023-04-26T11:46:09;99374.28;;;15.23;50.59
7532;BME280;3807;49.030;8.714;2023-04-26T11:48:36;99372.53;;;15.41;51.62
7532;BME280;3807;49.030;8.714;2023-04-26T11:51:03;99367.00;;;15.49;51.46
7532;BME280;3807;49.030;8.714;2023-04-26T11:53:40;99361.84;;;15.65;44.18
7532;BME280;3807;49.030;8.714;2023-04-26T11:56:13;99354.81;;;15.53;53.84
7532;BME280;3807;49.030;8.714;2023-04-26T11:58:45;99365.00;;;15.38;54.80
7532;BME280;3807;49.030;8.714;2023-04-26T12:01:19;99367.38;;;15.25;55.64
7532;BME280;3807;49.030;8.714;2023-04-26T12:03:49;99365.66;;;15.42;55.12
7532;BME280;3807;49.030;8.714;2023-04-26T12:06:15;99371.22;;;15.50;54.52
7532;BME280;3807;49.030;8.714;2023-04-26T12:08:40;99367.97;;;15.31;55.98
7532;BME280;3807;49.030;8.714;2023-04-26T12:11:06;99368.00;;;15.62;55.18
7532;BME280;3807;49.030;8.714;2023-04-26T12:13:32;99365.97;;;15.69;55.81
7532;BME280;3807;49.030;8.714;2023-04-26T12:15:57;99369.28;;;15.87;51.23
7532;BME280;3807;49.030;8.714;2023-04-26T12:18:29;99366.31;;;16.25;52.93
7532;BME280;3807;49.030;8.714;2023-04-26T12:20:57;99367.75;;;16.44;51.39
7532;BME280;3807;49.030;8.714;2023-04-26T12:23:23;99360.84;;;16.31;53.68
7532;BME280;3807;49.030;8.714;2023-04-26T12:25:53;99358.84;;;16.36;51.28
7532;BME280;3807;49.030;8.714;2023-04-26T12:28:20;99358.78;;;16.52;47.52
7532;BME280;3807;49.030;8.714;2023-04-26T12:30:46;99348.62;;;16.64;49.18
7532;BME280;3807;49.030;8.714;2023-04-26T12:33:11;99361.31;;;16.67;52.54
7532;BME280;3807;49.030;8.714;2023-04-26T12:35:37;99363.94;;;16.52;46.80
7532;BME280;3807;49.030;8.714;2023-04-26T12:38:02;99362.97;;;16.68;51.02
7532;BME280;3807;49.030;8.714;2023-04-26T12:40:28;99356.56;;;16.76;47.26
7532;BME280;3807;49.030;8.714;2023-04-26T12:42:54;99354.75;;;16.78;51.81
7532;BME280;3807;49.030;8.714;2023-04-26T12:45:21;99360.00;;;16.90;52.21
7532;BME280;3807;49.030;8.714;2023-04-26T12:47:47;99353.72;;;16.80;53.25
7532;BME280;3807;49.030;8.714;2023-04-26T12:50:13;99345.47;;;16.89;54.70
7532;BME280;3807;49.030;8.714;2023-04-26T12:52:40;99350.28;;;17.10;50.00
7532;BME280;3807;49.030;8.714;2023-04-26T12:55:07;99346.78;;;16.97;53.83
7532;BME280;3807;49.030;8.714;2023-04-26T12:57:33;99355.41;;;16.96;55.14
7532;BME280;3807;49.030;8.714;2023-04-26T12:59:59;99348.41;;;16.83;55.50
7532;BME280;3807;49.030;8.714;2023-04-26T13:02:25;99348.06;;;17.04;53.23
7532;BME280;3807;49.030;8.714;2023-04-26T13:04:50;99350.38;;;17.23;52.61
7532;BME280;3807;49.030;8.714;2023-04-26T13:07:15;99352.34;;;17.46;51.98
7532;BME280;3807;49.030;8.714;2023-04-26T13:09:41;99350.44;;;17.50;49.82
7532;BME280;3807;49.030;8.714;2023-04-26T13:12:07;99351.66;;;17.44;52.29
7532;BME280;3807;49.030;8.714;2023-04-26T13:14:32;99351.53;;;17.46;52.49
7532;BME280;3807;49.030;8.714;2023-04-26T13:16:57;99349.12;;;17.71;51.42
7532;BME280;3807;49.030;8.714;2023-04-26T13:19:23;99346.63;;;17.70;52.51
7532;BME280;3807;49.030;8.714;2023-04-26T13:21:48;99349.03;;;17.58;52.14
7532;BME280;3807;49.030;8.714;2023-04-26T13:24:13;99345.78;;;17.83;51.87
7532;BME280;3807;49.030;8.714;2023-04-26T13:26:39;99342.44;;;17.96;46.55
7532;BME280;3807;49.030;8.714;2023-04-26T13:29:04;99344.44;;;18.05;49.07
7532;BME280;3807;49.030;8.714;2023-04-26T13:31:29;99345.84;;;17.96;48.54
7532;BME280;3807;49.030;8.714;2023-04-26T13:33:55;99353.66;;;18.22;49.42
7532;BME280;3807;49.030;8.714;2023-04-26T13:36:21;99344.78;;;18.13;50.08
7532;BME280;3807;49.030;8.714;2023-04-26T13:38:46;99338.87;;;17.84;52.11
7532;BME280;3807;49.030;8.714;2023-04-26T13:41:11;99347.69;;;17.94;51.38